sensor_id;sensor_type;location;lat;lon;timestamp;pressure;altitude;pressure_sealevel;temperature;humidity
39265;BME280;42646;51.910;7.724;2023-03-20T00:02:04;101237.66;;;8.13;100.00
39265;BME280;42646;51.910;7.724;2023-03-20T00:04:34;101243.69;;;8.15;100.00
39265;BME280;42646;51.910;7.724;2023-03-20T00:07:02;101245.25;;;8.17;100.00
39265;BME280;42646;51.910;7.724;2023-03-20T00:09:29;101246.84;;;8.20;100.00
39265;BME280;42646;51.910;7.724;2023-03-20T00:11:59;101243.97;;;8.23;100.00
39265;BME280;42646;51.910;7.724;2023-03-20T00:14:27;101244.72;;;8.25;100.00
39265;BME280;42646;51.910;7.724;2023-03-20T00:16:55;101241.00;;;8.27;100.00
39265;BME280;42646;51.910;7.724;2023-03-20T00:19:24;101248.75;;;8.30;100.00
39265;BME280;42646;51.910;7.724;2023-03-20T00:21:54;101243.34;;;8.32;100.00
39265;BME280;42646;51.910;7.724;2023-03-20T00:24:22;101236.94;;;8.35;100.00
39265;BME280;42646;51.910;7.724;2023-03-20T00:26:52;101224.25;;;8.40;100.00
39265;BME280;42646;51.910;7.724;2023-03-20T00:29:21;101224.66;;;8.46;100.00
39265;BME280;42646;51.910;7.724;2023-03-20T00:31:50;101224.56;;;8.48;100.00
39265;BME280;42646;51.910;7.724;2023-03-20T00:34:20;101227.94;;;8.50;100.00
39265;BME280;42646;51.910;7.724;2023-03-20T00:36:50;101223.47;;;8.50;100.00
39265;BME280;42646;51.910;7.724;2023-03-20T00:39:20;101232.91;;;8.54;100.00
39265;BME280;42646;51.910;7.724;2023-03-20T00:41:50;101237.25;;;8.55;100.00
39265;BME280;42646;51.910;7.724;2023-03-20T00:44:21;101231.00;;;8.56;100.00
39265;BME280;42646;51.910;7.724;2023-03-20T00:46:52;101229.91;;;8.59;100.00
39265;BME280;42646;51.910;7.724;2023-03-20T00:49:24;101229.69;;;8.62;100.00
39265;BME280;42646;51.910;7.724;2023-03-20T00:51:54;101223.31;;;8.65;100.00
39265;BME280;42646;51.910;7.724;2023-03-20T00:54:25;101223.81;;;8.70;100.00
39265;BME280;42646;51.910;7.724;2023-03-20T00:56:56;101220.13;;;8.72;100.00
39265;BME280;42646;51.910;7.724;2023-03-20T00:59:28;101219.03;;;8.75;100.00
39265;BME280;42646;51.910;7.724;2023-03-20T01:01:57;101211.81;;;8.77;100.00
39265;BME280;42646;51.910;7.724;2023-03-20T01:04:30;101201.94;;;8.79;100.00
39265;BME280;42646;51.910;7.724;2023-03-20T01:07:00;101206.91;;;8.83;100.00
39265;BME280;42646;51.910;7.724;2023-03-20T01:09:30;101211.00;;;8.88;100.00
39265;BME280;42646;51.910;7.724;2023-03-20T01:11:58;101210.88;;;8.89;100.00
39265;BME280;42646;51.910;7.724;2023-03-20T01:14:26;101212.25;;;8.95;100.00
39265;BME280;42646;51.910;7.724;2023-03-20T01:16:53;101206.72;;;8.98;100.00
39265;BME280;42646;51.910;7.724;2023-03-20T01:19:21;101215.53;;;8.98;100.00
39265;BME280;42646;51.910;7.724;2023-03-20T01:21:50;101215.31;;;9.01;100.00
39265;BME280;42646;51.910;7.724;2023-03-20T01:24:18;101215.19;;;9.03;100.00
39265;BME280;42646;51.910;7.724;2023-03-20T01:26:48;101222.06;;;9.05;100.00
39265;BME280;42646;51.910;7.724;2023-03-20T01:29:19;101225.94;;;9.13;100.00
39265;BME280;42646;51.910;7.724;2023-03-20T01:31:48;101228.00;;;9.09;100.00
39265;BME280;42646;51.910;7.724;2023-03-20T01:34:19;101232.13;;;9.13;100.00
39265;BME280;42646;51.910;7.724;2023-03-20T01:36:49;101237.44;;;9.13;100.00
39265;BME280;42646;51.910;7.724;2023-03-20T01:39:18;101247.69;;;9.18;100.00
39265;BME280;42646;51.910;7.724;2023-03-20T01:41:50;101251.19;;;9.18;100.00
39265;BME280;42646;51.910;7.724;2023-03-20T01:44:22;101255.56;;;9.19;100.00
39265;BME280;42646;51.910;7.724;2023-03-20T01:46:55;101255.66;;;9.18;100.00
39265;BME280;42646;51.910;7.724;2023-03-20T01:52:30;101262.06;;;9.15;100.00
39265;BME280;42646;51.910;7.724;2023-03-20T01:54:58;101263.75;;;9.16;100.00
39265;BME280;42646;51.910;7.724;2023-03-20T01:57:27;101267.25;;;9.17;100.00
39265;BME280;42646;51.910;7.724;2023-03-20T02:00:00;101262.56;;;9.20;100.00
39265;BME280;42646;51.910;7.724;2023-03-20T02:02:41;101269.06;;;9.16;100.00
39265;BME280;42646;51.910;7.724;2023-03-20T02:05:14;101264.47;;;9.18;100.00
39265;BME280;42646;51.910;7.724;2023-03-20T02:07:46;101258.44;;;9.16;100.00
39265;BME280;42646;51.910;7.724;2023-03-20T02:10:18;101261.94;;;9.17;100.00
39265;BME280;42646;51.910;7.724;2023-03-20T02:12:57;101253.97;;;9.17;100.00
39265;BME280;42646;51.910;7.724;2023-03-20T02:15:32;101248.53;;;9.18;100.00
39265;BME280;42646;51.910;7.724;2023-03-20T02:18:13;101246.72;;;9.19;100.00
39265;BME280;42646;51.910;7.724;2023-03-20T02:20:51;101244.06;;;9.19;100.00
39265;BME280;42646;51.910;7.724;2023-03-20T02:26:30;101259.16;;;9.18;100.00
39265;BME280;42646;51.910;7.724;2023-03-20T02:29:35;101252.03;;;9.19;100.00
39265;BME280;42646;51.910;7.724;2023-03-20T02:38:25;101272.16;;;9.10;100.00
39265;BME280;42646;51.910;7.724;2023-03-20T02:41:00;101281.22;;;9.19;100.00
39265;BME280;42646;51.910;7.724;2023-03-20T02:43:35;101266.84;;;9.10;100.00
39265;BME280;42646;51.910;7.724;2023-03-20T02:46:12;101268.16;;;9.04;100.00
39265;BME280;42646;51.910;7.724;2023-03-20T02:48:46;101269.97;;;9.04;100.00
39265;BME280;42646;51.910;7.724;2023-03-20T02:51:26;101266.78;;;8.99;100.00
39265;BME280;42646;51.910;7.724;2023-03-20T02:54:05;101268.38;;;9.01;100.00
39265;BME280;42646;51.910;7.724;2023-03-20T02:56:45;101265.81;;;9.00;100.00
39265;BME280;42646;51.910;7.724;2023-03-20T02:59:23;101264.13;;;8.99;100.00
39265;BME280;42646;51.910;7.724;2023-03-20T03:01:58;101263.50;;;8.95;100.00
39265;BME280;42646;51.910;7.724;2023-03-20T03:04:32;101267.75;;;8.98;100.00
39265;BME280;42646;51.910;7.724;2023-03-20T03:07:04;101272.22;;;8.97;100.00
39265;BME280;42646;51.910;7.724;2023-03-20T03:09:38;101277.19;;;9.02;100.00
39265;BME280;42646;51.910;7.724;2023-03-20T03:12:11;101265.31;;;8.95;100.00
39265;BME280;42646;51.910;7.724;2023-03-20T03:14:43;101269.91;;;8.93;100.00
39265;BME280;42646;51.910;7.724;2023-03-20T03:17:15;101276.69;;;8.97;100.00
39265;BME280;42646;51.910;7.724;2023-03-20T03:19:46;101283.28;;;8.91;100.00
39265;BME280;42646;51.910;7.724;2023-03-20T03:22:17;101275.31;;;8.91;100.00
39265;BME280;42646;51.910;7.724;2023-03-20T03:24:48;101265.69;;;8.90;100.00
39265;BME280;42646;51.910;7.724;2023-03-20T03:27:20;101268.34;;;8.90;100.00
39265;BME280;42646;51.910;7.724;2023-03-20T03:29:52;101273.63;;;8.90;100.00
39265;BME280;42646;51.910;7.724;2023-03-20T03:32:26;101264.84;;;8.90;100.00
39265;BME280;42646;51.910;7.724;2023-03-20T03:34:56;101253.59;;;8.86;100.00
39265;BME280;42646;51.910;7.724;2023-03-20T03:37:38;101247.09;;;8.90;100.00
39265;BME280;42646;51.910;7.724;2023-03-20T03:40:15;101241.03;;;8.88;100.00
39265;BME280;42646;51.910;7.724;2023-03-20T03:42:51;101231.50;;;8.86;100.00
39265;BME280;42646;51.910;7.724;2023-03-20T03:45:26;101224.53;;;8.85;100.00
39265;BME280;42646;51.910;7.724;2023-03-20T03:48:00;101217.41;;;8.85;100.00
39265;BME280;42646;51.910;7.724;2023-03-20T03:50:34;101222.59;;;8.87;100.00
39265;BME280;42646;51.910;7.724;2023-03-20T03:53:09;101230.78;;;8.83;100.00
39265;BME280;42646;51.910;7.724;2023-03-20T03:55:42;101229.91;;;8.83;100.00
39265;BME280;42646;51.910;7.724;2023-03-20T03:58:15;101219.31;;;8.83;100.00
39265;BME280;42646;51.910;7.724;2023-03-20T04:00:47;101218.69;;;8.79;100.00
39265;BME280;42646;51.910;7.724;2023-03-20T04:03:16;101213.28;;;8.81;100.00
39265;BME280;42646;51.910;7.724;2023-03-20T04:05:49;101211.59;;;8.80;100.00
39265;BME280;42646;51.910;7.724;2023-03-20T04:08:19;101212.31;;;8.82;100.00
39265;BME280;42646;51.910;7.724;2023-03-20T04:10:49;101226.66;;;8.79;100.00
39265;BME280;42646;51.910;7.724;2023-03-20T04:13:16;101214.38;;;8.78;100.00
39265;BME280;42646;51.910;7.724;2023-03-20T04:15:45;101219.75;;;8.77;100.00
39265;BME280;42646;51.910;7.724;2023-03-20T04:18:15;101214.56;;;8.75;100.00
39265;BME280;42646;51.910;7.724;2023-03-20T04:20:45;101223.50;;;8.74;100.00
39265;BME280;42646;51.910;7.724;2023-03-20T04:23:14;101229.75;;;8.73;100.00
39265;BME280;42646;51.910;7.724;2023-03-20T04:25:44;101224.97;;;8.78;100.00
39265;BME280;42646;51.910;7.724;2023-03-20T04:28:13;101216.63;;;8.72;100.00
39265;BME280;42646;51.910;7.724;2023-03-20T04:31:01;101224.66;;;8.70;100.00
39265;BME280;42646;51.910;7.724;2023-03-20T04:33:58;101216.50;;;8.73;100.00
39265;BME280;42646;51.910;7.724;2023-03-20T04:36:41;101218.53;;;8.70;100.00
39265;BME280;42646;51.910;7.724;2023-03-20T04:39:12;101214.06;;;8.70;100.00
39265;BME280;42646;51.910;7.724;2023-03-20T04:41:40;101209.00;;;8.67;100.00
39265;BME280;42646;51.910;7.724;2023-03-20T04:44:09;101209.00;;;8.67;100.00
39265;BME280;42646;51.910;7.724;2023-03-20T04:46:40;101207.19;;;8.68;100.00
39265;BME280;42646;51.910;7.724;2023-03-20T04:49:13;101210.06;;;8.65;100.00
39265;BME280;42646;51.910;7.724;2023-03-20T04:51:42;101214.75;;;8.61;100.00
39265;BME280;42646;51.910;7.724;2023-03-20T04:54:12;101220.91;;;8.62;100.00
39265;BME280;42646;51.910;7.724;2023-03-20T04:56:41;101217.41;;;8.61;100.00
39265;BME280;42646;51.910;7.724;2023-03-20T04:59:16;101211.25;;;8.61;100.00
39265;BME280;42646;51.910;7.724;2023-03-20T05:01:44;101215.72;;;8.60;100.00
39265;BME280;42646;51.910;7.724;2023-03-20T05:04:12;101214.00;;;8.59;100.00
39265;BME280;42646;51.910;7.724;2023-03-20T05:06:40;101214.00;;;8.59;100.00
39265;BME280;42646;51.910;7.724;2023-03-20T05:09:11;101225.56;;;8.58;100.00
39265;BME280;42646;51.910;7.724;2023-03-20T05:11:41;101230.16;;;8.56;100.00
39265;BME280;42646;51.910;7.724;2023-03-20T05:14:34;101229.06;;;8.59;100.00
39265;BME280;42646;51.910;7.724;2023-03-20T05:17:31;101218.69;;;8.55;100.00
39265;BME280;42646;51.910;7.724;2023-03-20T05:20:22;101216.16;;;8.54;100.00
39265;BME280;42646;51.910;7.724;2023-03-20T05:23:00;101209.06;;;8.54;100.00
39265;BME280;42646;51.910;7.724;2023-03-20T05:25:58;101205.88;;;8.49;100.00
39265;BME280;42646;51.910;7.724;2023-03-20T05:28:33;101216.50;;;8.49;100.00
39265;BME280;42646;51.910;7.724;2023-03-20T05:31:27;101213.97;;;8.48;100.00
39265;BME280;42646;51.910;7.724;2023-03-20T05:34:03;101219.25;;;8.48;100.00
39265;BME280;42646;51.910;7.724;2023-03-20T05:36:53;101216.69;;;8.46;100.00
39265;BME280;42646;51.910;7.724;2023-03-20T05:39:30;101216.81;;;8.45;100.00
39265;BME280;42646;51.910;7.724;2023-03-20T05:42:14;101215.84;;;8.46;100.00
39265;BME280;42646;51.910;7.724;2023-03-20T05:44:54;101221.03;;;8.47;100.00
39265;BME280;42646;51.910;7.724;2023-03-20T05:47:41;101223.81;;;8.46;100.00
39265;BME280;42646;51.910;7.724;2023-03-20T05:50:35;101219.34;;;8.46;100.00
39265;BME280;42646;51.910;7.724;2023-03-20T05:53:37;101227.41;;;8.45;100.00
39265;BME280;42646;51.910;7.724;2023-03-20T05:56:29;101235.50;;;8.43;100.00
39265;BME280;42646;51.910;7.724;2023-03-20T05:59:23;101234.53;;;8.44;100.00
39265;BME280;42646;51.910;7.724;2023-03-20T06:02:15;101242.69;;;8.41;100.00
39265;BME280;42646;51.910;7.724;2023-03-20T06:04:54;101232.84;;;8.43;100.00
39265;BME280;42646;51.910;7.724;2023-03-20T06:07:26;101227.53;;;8.43;100.00
39265;BME280;42646;51.910;7.724;2023-03-20T06:10:00;101230.19;;;8.43;100.00
39265;BME280;42646;51.910;7.724;2023-03-20T06:12:29;101229.44;;;8.41;100.00
39265;BME280;42646;51.910;7.724;2023-03-20T06:14:59;101231.25;;;8.41;100.00
39265;BME280;42646;51.910;7.724;2023-03-20T06:17:30;101236.34;;;8.44;100.00
39265;BME280;42646;51.910;7.724;2023-03-20T06:20:04;101249.91;;;8.39;100.00
39265;BME280;42646;51.910;7.724;2023-03-20T06:22:33;101241.13;;;8.39;100.00
39265;BME280;42646;51.910;7.724;2023-03-20T06:25:01;101245.47;;;8.40;100.00
39265;BME280;42646;51.910;7.724;2023-03-20T06:27:34;101228.72;;;8.39;100.00
39265;BME280;42646;51.910;7.724;2023-03-20T06:30:02;101242.81;;;8.40;100.00
39265;BME280;42646;51.910;7.724;2023-03-20T06:32:34;101254.25;;;8.40;100.00
39265;BME280;42646;51.910;7.724;2023-03-20T06:35:10;101259.69;;;8.39;100.00
39265;BME280;42646;51.910;7.724;2023-03-20T06:37:43;101252.69;;;8.38;100.00
39265;BME280;42646;51.910;7.724;2023-03-20T06:40:18;101255.22;;;8.39;100.00
39265;BME280;42646;51.910;7.724;2023-03-20T06:42:47;101260.81;;;8.35;100.00
39265;BME280;42646;51.910;7.724;2023-03-20T06:45:16;101261.59;;;8.37;100.00
39265;BME280;42646;51.910;7.724;2023-03-20T06:47:50;101269.00;;;8.32;100.00
39265;BME280;42646;51.910;7.724;2023-03-20T06:50:22;101266.06;;;8.36;100.00
39265;BME280;42646;51.910;7.724;2023-03-20T06:52:50;101259.88;;;8.36;100.00
39265;BME280;42646;51.910;7.724;2023-03-20T06:55:42;101270.56;;;8.34;100.00
39265;BME280;42646;51.910;7.724;2023-03-20T06:58:12;101264.41;;;8.34;100.00
39265;BME280;42646;51.910;7.724;2023-03-20T07:00:44;101264.97;;;8.26;100.00
39265;BME280;42646;51.910;7.724;2023-03-20T07:03:13;101273.88;;;8.25;100.00
39265;BME280;42646;51.910;7.724;2023-03-20T07:05:45;101276.31;;;8.28;100.00
39265;BME280;42646;51.910;7.724;2023-03-20T07:08:15;101278.53;;;8.34;100.00
39265;BME280;42646;51.910;7.724;2023-03-20T07:10:43;101278.84;;;8.29;100.00
39265;BME280;42646;51.910;7.724;2023-03-20T07:13:15;101291.88;;;8.33;100.00
39265;BME280;42646;51.910;7.724;2023-03-20T07:15:43;101294.75;;;8.29;100.00
39265;BME280;42646;51.910;7.724;2023-03-20T07:18:32;101301.78;;;8.30;100.00
39265;BME280;42646;51.910;7.724;2023-03-20T07:21:02;101303.47;;;8.32;100.00
39265;BME280;42646;51.910;7.724;2023-03-20T07:23:34;101296.34;;;8.32;100.00
39265;BME280;42646;51.910;7.724;2023-03-20T07:26:03;101297.19;;;8.33;100.00
39265;BME280;42646;51.910;7.724;2023-03-20T07:28:33;101297.19;;;8.33;100.00
39265;BME280;42646;51.910;7.724;2023-03-20T07:31:19;101289.97;;;8.35;100.00
39265;BME280;42646;51.910;7.724;2023-03-20T07:33:58;101295.72;;;8.41;100.00
39265;BME280;42646;51.910;7.724;2023-03-20T07:36:27;101309.50;;;8.46;100.00
39265;BME280;42646;51.910;7.724;2023-03-20T07:38:55;101298.69;;;8.49;100.00
39265;BME280;42646;51.910;7.724;2023-03-20T07:41:23;101303.03;;;8.50;100.00
39265;BME280;42646;51.910;7.724;2023-03-20T07:44:00;101302.72;;;8.55;100.00
39265;BME280;42646;51.910;7.724;2023-03-20T07:46:44;101304.28;;;8.57;100.00
39265;BME280;42646;51.910;7.724;2023-03-20T07:49:14;101305.00;;;8.60;100.00
39265;BME280;42646;51.910;7.724;2023-03-20T07:51:46;101301.00;;;8.67;100.00
39265;BME280;42646;51.910;7.724;2023-03-20T07:54:39;101301.84;;;8.67;100.00
39265;BME280;42646;51.910;7.724;2023-03-20T07:57:07;101299.69;;;8.72;100.00
39265;BME280;42646;51.910;7.724;2023-03-20T07:59:35;101305.94;;;8.71;100.00
39265;BME280;42646;51.910;7.724;2023-03-20T08:02:02;101301.59;;;8.70;100.00
39265;BME280;42646;51.910;7.724;2023-03-20T08:04:30;101287.88;;;8.76;100.00
39265;BME280;42646;51.910;7.724;2023-03-20T08:06:59;101299.34;;;8.77;100.00
39265;BME280;42646;51.910;7.724;2023-03-20T08:09:27;101300.94;;;8.79;100.00
39265;BME280;42646;51.910;7.724;2023-03-20T08:11:55;101302.63;;;8.80;100.00
39265;BME280;42646;51.910;7.724;2023-03-20T08:14:24;101304.97;;;8.85;100.00
39265;BME280;42646;51.910;7.724;2023-03-20T08:16:52;101310.88;;;8.89;99.50
39265;BME280;42646;51.910;7.724;2023-03-20T08:19:47;101302.72;;;8.92;98.64
39265;BME280;42646;51.910;7.724;2023-03-20T08:22:18;101297.13;;;9.07;97.69
39265;BME280;42646;51.910;7.724;2023-03-20T08:24:47;101309.25;;;8.99;96.87
39265;BME280;42646;51.910;7.724;2023-03-20T08:27:14;101312.63;;;9.01;96.69
39265;BME280;42646;51.910;7.724;2023-03-20T08:29:42;101308.19;;;9.01;96.58
39265;BME280;42646;51.910;7.724;2023-03-20T08:32:10;101298.69;;;9.10;95.70
39265;BME280;42646;51.910;7.724;2023-03-20T08:34:38;101305.19;;;9.06;96.02
39265;BME280;42646;51.910;7.724;2023-03-20T08:37:06;101307.50;;;9.10;96.33
39265;BME280;42646;51.910;7.724;2023-03-20T08:39:35;101313.97;;;9.19;95.65
39265;BME280;42646;51.910;7.724;2023-03-20T08:42:05;101312.16;;;9.20;95.24
39265;BME280;42646;51.910;7.724;2023-03-20T08:44:33;101309.38;;;9.21;94.79
39265;BME280;42646;51.910;7.724;2023-03-20T08:47:01;101300.72;;;9.30;94.58
39265;BME280;42646;51.910;7.724;2023-03-20T08:49:28;101307.63;;;9.33;94.47
39265;BME280;42646;51.910;7.724;2023-03-20T08:51:57;101307.88;;;9.41;93.27
39265;BME280;42646;51.910;7.724;2023-03-20T08:54:26;101305.84;;;9.45;93.06
39265;BME280;42646;51.910;7.724;2023-03-20T08:56:55;101306.75;;;9.56;91.31
39265;BME280;42646;51.910;7.724;2023-03-20T08:59:23;101309.28;;;9.58;90.45
39265;BME280;42646;51.910;7.724;2023-03-20T09:01:51;101305.44;;;9.62;89.22
39265;BME280;42646;51.910;7.724;2023-03-20T09:04:19;101311.72;;;9.61;88.36
39265;BME280;42646;51.910;7.724;2023-03-20T09:06:48;101309.94;;;9.73;86.46
39265;BME280;42646;51.910;7.724;2023-03-20T09:09:17;101305.81;;;9.69;84.79
39265;BME280;42646;51.910;7.724;2023-03-20T09:11:46;101307.63;;;9.68;84.17
39265;BME280;42646;51.910;7.724;2023-03-20T09:14:16;101307.75;;;9.67;84.51
39265;BME280;42646;51.910;7.724;2023-03-20T09:16:43;101309.19;;;9.71;84.22
39265;BME280;42646;51.910;7.724;2023-03-20T09:19:11;101314.75;;;9.68;84.52
39265;BME280;42646;51.910;7.724;2023-03-20T09:21:39;101308.47;;;9.69;83.71
39265;BME280;42646;51.910;7.724;2023-03-20T09:24:06;101309.19;;;9.71;81.96
39265;BME280;42646;51.910;7.724;2023-03-20T09:26:35;101308.13;;;9.73;81.79
39265;BME280;42646;51.910;7.724;2023-03-20T09:29:03;101314.88;;;9.77;79.64
39265;BME280;42646;51.910;7.724;2023-03-20T09:31:32;101318.88;;;9.83;79.05
39265;BME280;42646;51.910;7.724;2023-03-20T09:34:00;101322.50;;;9.82;79.25
39265;BME280;42646;51.910;7.724;2023-03-20T09:36:28;101324.81;;;9.86;79.78
39265;BME280;42646;51.910;7.724;2023-03-20T09:38:57;101324.22;;;9.94;78.60
39265;BME280;42646;51.910;7.724;2023-03-20T09:41:26;101324.09;;;9.84;79.07
39265;BME280;42646;51.910;7.724;2023-03-20T09:44:11;101326.50;;;9.87;79.01
39265;BME280;42646;51.910;7.724;2023-03-20T09:46:51;101324.84;;;9.98;78.86
39265;BME280;42646;51.910;7.724;2023-03-20T09:49:50;101327.38;;;9.99;78.73
39265;BME280;42646;51.910;7.724;2023-03-20T09:52:25;101327.53;;;10.09;78.33
39265;BME280;42646;51.910;7.724;2023-03-20T09:54:57;101321.97;;;10.12;77.64
39265;BME280;42646;51.910;7.724;2023-03-20T09:57:27;101332.59;;;10.12;76.89
39265;BME280;42646;51.910;7.724;2023-03-20T09:59:58;101326.31;;;10.13;76.64
39265;BME280;42646;51.910;7.724;2023-03-20T10:02:45;101321.03;;;10.24;75.17
39265;BME280;42646;51.910;7.724;2023-03-20T10:05:19;101333.84;;;10.30;73.40
39265;BME280;42646;51.910;7.724;2023-03-20T10:07:48;101321.88;;;10.25;71.95
39265;BME280;42646;51.910;7.724;2023-03-20T10:10:17;101321.03;;;10.24;72.67
39265;BME280;42646;51.910;7.724;2023-03-20T10:12:53;101318.88;;;10.29;72.05
39265;BME280;42646;51.910;7.724;2023-03-20T10:15:37;101317.41;;;10.25;72.33
39265;BME280;42646;51.910;7.724;2023-03-20T10:18:17;101308.59;;;10.36;71.67
39265;BME280;42646;51.910;7.724;2023-03-20T10:20:54;101306.28;;;10.31;71.30
39265;BME280;42646;51.910;7.724;2023-03-20T10:23:31;101307.16;;;10.32;72.01
39265;BME280;42646;51.910;7.724;2023-03-20T10:26:04;101303.41;;;10.34;72.82
39265;BME280;42646;51.910;7.724;2023-03-20T10:28:35;101307.53;;;10.50;72.28
39265;BME280;42646;51.910;7.724;2023-03-20T10:31:22;101303.75;;;10.52;69.31
39265;BME280;42646;51.910;7.724;2023-03-20T10:34:03;101300.63;;;10.47;71.00
39265;BME280;42646;51.910;7.724;2023-03-20T10:36:48;101296.75;;;10.51;71.91
39265;BME280;42646;51.910;7.724;2023-03-20T10:39:30;101295.78;;;10.52;71.85
39265;BME280;42646;51.910;7.724;2023-03-20T10:42:06;101291.78;;;10.58;71.89
39265;BME280;42646;51.910;7.724;2023-03-20T10:44:39;101295.06;;;10.61;71.50
39265;BME280;42646;51.910;7.724;2023-03-20T10:47:11;101285.69;;;10.67;71.45
39265;BME280;42646;51.910;7.724;2023-03-20T10:49:46;101288.97;;;10.70;70.87
39265;BME280;42646;51.910;7.724;2023-03-20T10:52:20;101285.47;;;10.70;71.11
39265;BME280;42646;51.910;7.724;2023-03-20T10:54:53;101286.19;;;10.72;70.88
39265;BME280;42646;51.910;7.724;2023-03-20T10:57:24;101273.22;;;10.79;71.16
39265;BME280;42646;51.910;7.724;2023-03-20T10:59:55;101273.84;;;10.82;69.77
39265;BME280;42646;51.910;7.724;2023-03-20T11:02:26;101272.34;;;10.89;67.86
39265;BME280;42646;51.910;7.724;2023-03-20T11:04:56;101273.94;;;10.92;67.27
39265;BME280;42646;51.910;7.724;2023-03-20T11:07:27;101272.63;;;10.86;67.62
39265;BME280;42646;51.910;7.724;2023-03-20T11:10:08;101278.78;;;10.87;66.53
39265;BME280;42646;51.910;7.724;2023-03-20T11:12:38;101276.59;;;10.92;66.19
39265;BME280;42646;51.910;7.724;2023-03-20T11:15:20;101274.69;;;10.83;67.43
39265;BME280;42646;51.910;7.724;2023-03-20T11:17:55;101275.50;;;10.94;66.88
39265;BME280;42646;51.910;7.724;2023-03-20T11:20:27;101271.66;;;10.87;66.07
39265;BME280;42646;51.910;7.724;2023-03-20T11:23:03;101263.06;;;10.84;65.70
39265;BME280;42646;51.910;7.724;2023-03-20T11:25:33;101258.97;;;10.80;67.00
39265;BME280;42646;51.910;7.724;2023-03-20T11:28:20;101256.66;;;10.86;68.29
39265;BME280;42646;51.910;7.724;2023-03-20T11:30:49;101259.78;;;10.91;68.45
39265;BME280;42646;51.910;7.724;2023-03-20T11:33:31;101259.38;;;10.96;67.72
39265;BME280;42646;51.910;7.724;2023-03-20T11:36:10;101260.47;;;11.05;64.52
39265;BME280;42646;51.910;7.724;2023-03-20T11:38:43;101255.50;;;11.00;65.38
39265;BME280;42646;51.910;7.724;2023-03-20T11:41:17;101249.56;;;10.96;66.39
39265;BME280;42646;51.910;7.724;2023-03-20T11:43:45;101250.44;;;10.97;65.23
39265;BME280;42646;51.910;7.724;2023-03-20T11:46:13;101249.56;;;10.96;64.59
39265;BME280;42646;51.910;7.724;2023-03-20T11:48:42;101246.06;;;10.96;65.98
39265;BME280;42646;51.910;7.724;2023-03-20T11:51:14;101250.19;;;11.00;66.16
39265;BME280;42646;51.910;7.724;2023-03-20T11:53:57;101248.97;;;11.04;65.23
39265;BME280;42646;51.910;7.724;2023-03-20T11:56:28;101257.44;;;11.09;65.71
39265;BME280;42646;51.910;7.724;2023-03-20T11:59:01;101256.31;;;11.12;64.67
39265;BME280;42646;51.910;7.724;2023-03-20T12:01:37;101255.00;;;11.06;64.37
39265;BME280;42646;51.910;7.724;2023-03-20T12:04:12;101257.94;;;11.03;64.95
39265;BME280;42646;51.910;7.724;2023-03-20T12:06:45;101260.63;;;11.24;64.59
39265;BME280;42646;51.910;7.724;2023-03-20T12:09:41;101256.44;;;11.10;64.84
39265;BME280;42646;51.910;7.724;2023-03-20T12:12:16;101259.44;;;11.17;64.64
39265;BME280;42646;51.910;7.724;2023-03-20T12:14:53;101250.00;;;11.13;64.29
39265;BME280;42646;51.910;7.724;2023-03-20T12:17:41;101257.81;;;11.05;65.42
39265;BME280;42646;51.910;7.724;2023-03-20T12:20:19;101249.44;;;11.09;65.53
39265;BME280;42646;51.910;7.724;2023-03-20T12:22:58;101245.66;;;11.12;65.11
39265;BME280;42646;51.910;7.724;2023-03-20T12:25:28;101244.44;;;11.16;63.23
39265;BME280;42646;51.910;7.724;2023-03-20T12:28:03;101246.78;;;11.09;62.93
39265;BME280;42646;51.910;7.724;2023-03-20T12:31:05;101238.19;;;11.06;63.10
39265;BME280;42646;51.910;7.724;2023-03-20T12:33:42;101241.72;;;10.95;63.55
39265;BME280;42646;51.910;7.724;2023-03-20T12:36:14;101241.44;;;11.09;63.09
39265;BME280;42646;51.910;7.724;2023-03-20T12:38:45;101241.97;;;11.03;63.17
39265;BME280;42646;51.910;7.724;2023-03-20T12:41:15;101242.34;;;10.99;64.00
39265;BME280;42646;51.910;7.724;2023-03-20T12:44:07;101247.63;;;11.10;64.11
39265;BME280;42646;51.910;7.724;2023-03-20T12:46:42;101249.56;;;10.96;64.74
39265;BME280;42646;51.910;7.724;2023-03-20T12:49:19;101244.03;;;11.00;64.54
39265;BME280;42646;51.910;7.724;2023-03-20T12:52:00;101243.31;;;10.98;64.63
39265;BME280;42646;51.910;7.724;2023-03-20T12:55:02;101234.84;;;10.92;64.22
39265;BME280;42646;51.910;7.724;2023-03-20T12:57:36;101246.00;;;10.86;64.75
39265;BME280;42646;51.910;7.724;2023-03-20T13:00:14;101232.72;;;10.75;65.52
39265;BME280;42646;51.910;7.724;2023-03-20T13:02:54;101243.50;;;10.74;65.87
39265;BME280;42646;51.910;7.724;2023-03-20T13:05:29;101239.19;;;10.61;65.83
39265;BME280;42646;51.910;7.724;2023-03-20T13:08:14;101246.91;;;10.64;66.27
39265;BME280;42646;51.910;7.724;2023-03-20T13:10:51;101243.25;;;10.65;66.99
39265;BME280;42646;51.910;7.724;2023-03-20T13:13:30;101245.56;;;10.59;67.97
39265;BME280;42646;51.910;7.724;2023-03-20T13:16:08;101250.75;;;10.60;68.33
39265;BME280;42646;51.910;7.724;2023-03-20T13:18:49;101250.41;;;10.65;67.26
39265;BME280;42646;51.910;7.724;2023-03-20T13:21:24;101246.06;;;10.53;68.88
39265;BME280;42646;51.910;7.724;2023-03-20T13:24:03;101242.91;;;10.59;69.08
39265;BME280;42646;51.910;7.724;2023-03-20T13:26:45;101245.47;;;10.49;70.24
39265;BME280;42646;51.910;7.724;2023-03-20T13:29:21;101244.03;;;10.45;70.61
39265;BME280;42646;51.910;7.724;2023-03-20T13:32:01;101245.94;;;10.43;71.16
39265;BME280;42646;51.910;7.724;2023-03-20T13:34:42;101242.47;;;10.31;72.52
39265;BME280;42646;51.910;7.724;2023-03-20T13:37:16;101243.78;;;10.26;73.29
39265;BME280;42646;51.910;7.724;2023-03-20T13:39:59;101242.34;;;10.22;73.69